sensor_id;sensor_type;location;lat;lon;timestamp;pressure;altitude;pressure_sealevel;temperature;humidity
21900;BME280;11114;50.658;12.704;2023-06-04T00:02:25;96399.97;;;12.85;42.79
21900;BME280;11114;50.658;12.704;2023-06-04T00:05:11;96395.34;;;12.87;42.88
21900;BME280;11114;50.658;12.704;2023-06-04T00:07:58;96398.31;;;12.84;42.92
21900;BME280;11114;50.658;12.704;2023-06-04T00:10:45;96395.84;;;12.82;43.04
21900;BME280;11114;50.658;12.704;2023-06-04T00:13:31;96398.13;;;12.85;43.02
21900;BME280;11114;50.658;12.704;2023-06-04T00:16:18;96387.84;;;12.84;43.21
21900;BME280;11114;50.658;12.704;2023-06-04T00:19:05;96390.13;;;12.79;43.02
21900;BME280;11114;50.658;12.704;2023-06-04T00:21:52;96381.13;;;12.65;43.43
21900;BME280;11114;50.658;12.704;2023-06-04T00:24:39;96379.16;;;12.67;43.32
21900;BME280;11114;50.658;12.704;2023-06-04T00:27:27;96372.97;;;12.60;43.07
21900;BME280;11114;50.658;12.704;2023-06-04T00:30:14;96364.75;;;12.55;43.39
21900;BME280;11114;50.658;12.704;2023-06-04T00:33:02;96373.63;;;12.54;43.06
21900;BME280;11114;50.658;12.704;2023-06-04T00:35:52;96365.28;;;12.59;43.29
21900;BME280;11114;50.658;12.704;2023-06-04T00:38:38;96368.88;;;12.58;43.32
21900;BME280;11114;50.658;12.704;2023-06-04T00:41:25;96374.63;;;12.45;43.51
21900;BME280;11114;50.658;12.704;2023-06-04T00:44:12;96376.41;;;12.21;43.95
21900;BME280;11114;50.658;12.704;2023-06-04T00:47:00;96364.47;;;12.11;44.13
21900;BME280;11114;50.658;12.704;2023-06-04T00:49:47;96361.97;;;12.01;44.35
21900;BME280;11114;50.658;12.704;2023-06-04T00:52:41;96365.56;;;11.92;44.46
21900;BME280;11114;50.658;12.704;2023-06-04T00:55:28;96363.44;;;11.96;44.39
21900;BME280;11114;50.658;12.704;2023-06-04T00:58:16;96359.84;;;11.97;44.38
21900;BME280;11114;50.658;12.704;2023-06-04T01:01:04;96357.91;;;12.07;44.17
21900;BME280;11114;50.658;12.704;2023-06-04T01:03:55;96357.91;;;12.15;43.99
21900;BME280;11114;50.658;12.704;2023-06-04T01:06:44;96356.75;;;12.17;43.85
21900;BME280;11114;50.658;12.704;2023-06-04T01:09:32;96358.38;;;12.10;43.95
21900;BME280;11114;50.658;12.704;2023-06-04T01:12:22;96352.97;;;12.04;44.02
21900;BME280;11114;50.658;12.704;2023-06-04T01:15:11;96348.09;;;11.93;44.16
21900;BME280;11114;50.658;12.704;2023-06-04T01:17:59;96351.66;;;11.84;44.42
21900;BME280;11114;50.658;12.704;2023-06-04T01:20:52;96352.94;;;11.80;44.28
21900;BME280;11114;50.658;12.704;2023-06-04T01:23:49;96354.91;;;11.78;44.90
21900;BME280;11114;50.658;12.704;2023-06-04T01:26:44;96349.00;;;11.76;44.63
21900;BME280;11114;50.658;12.704;2023-06-04T01:29:35;96352.94;;;11.72;44.85
21900;BME280;11114;50.658;12.704;2023-06-04T01:32:24;96347.53;;;11.65;44.79
21900;BME280;11114;50.658;12.704;2023-06-04T01:35:12;96342.28;;;11.65;44.98
21900;BME280;11114;50.658;12.704;2023-06-04T01:37:59;96346.06;;;11.63;44.95
21900;BME280;11114;50.658;12.704;2023-06-04T01:40:47;96344.41;;;11.62;44.96
21900;BME280;11114;50.658;12.704;2023-06-04T01:43:35;96344.59;;;11.68;44.85
21900;BME280;11114;50.658;12.704;2023-06-04T01:46:23;96347.72;;;11.72;44.74
21900;BME280;11114;50.658;12.704;2023-06-04T01:49:09;96350.31;;;11.72;44.77
21900;BME280;11114;50.658;12.704;2023-06-04T01:51:57;96347.72;;;11.72;44.81
21900;BME280;11114;50.658;12.704;2023-06-04T01:54:44;96353.75;;;11.72;44.95
21900;BME280;11114;50.658;12.704;2023-06-04T01:57:35;96351.59;;;11.68;44.98
21900;BME280;11114;50.658;12.704;2023-06-04T02:00:26;96352.56;;;11.59;45.09
21900;BME280;11114;50.658;12.704;2023-06-04T02:03:13;96350.41;;;11.54;45.12
21900;BME280;11114;50.658;12.704;2023-06-04T02:06:03;96351.25;;;11.55;45.16
21900;BME280;11114;50.658;12.704;2023-06-04T02:08:51;96350.59;;;11.53;45.21
21900;BME280;11114;50.658;12.704;2023-06-04T02:11:40;96350.72;;;11.51;45.27
21900;BME280;11114;50.658;12.704;2023-06-04T02:14:31;96355.28;;;11.49;45.43
21900;BME280;11114;50.658;12.704;2023-06-04T02:17:18;96346.78;;;11.47;46.02
21900;BME280;11114;50.658;12.704;2023-06-04T02:20:08;96349.91;;;11.51;45.28
21900;BME280;11114;50.658;12.704;2023-06-04T02:22:56;96348.66;;;11.55;45.41
21900;BME280;11114;50.658;12.704;2023-06-04T02:25:46;96359.09;;;11.55;45.41
21900;BME280;11114;50.658;12.704;2023-06-04T02:28:34;96348.66;;;11.55;45.34
21900;BME280;11114;50.658;12.704;2023-06-04T02:31:22;96354.19;;;11.52;45.44
21900;BME280;11114;50.658;12.704;2023-06-04T02:34:09;96346.34;;;11.52;45.50
21900;BME280;11114;50.658;12.704;2023-06-04T02:36:56;96349.63;;;11.54;45.49
21900;BME280;11114;50.658;12.704;2023-06-04T02:39:42;96358.13;;;11.56;45.46
21900;BME280;11114;50.658;12.704;2023-06-04T02:42:30;96362.41;;;11.65;45.28
21900;BME280;11114;50.658;12.704;2023-06-04T02:45:17;96360.13;;;11.78;45.54
21900;BME280;11114;50.658;12.704;2023-06-04T02:48:04;96356.22;;;11.74;45.51
21900;BME280;11114;50.658;12.704;2023-06-04T02:50:51;96356.03;;;11.75;45.70
21900;BME280;11114;50.658;12.704;2023-06-04T02:53:40;96362.91;;;11.68;45.90
21900;BME280;11114;50.658;12.704;2023-06-04T02:56:29;96367.47;;;11.74;45.98
21900;BME280;11114;50.658;12.704;2023-06-04T02:59:17;96364.88;;;11.74;46.04
21900;BME280;11114;50.658;12.704;2023-06-04T03:02:04;96369.59;;;11.71;46.06
21900;BME280;11114;50.658;12.704;2023-06-04T03:04:52;96376.44;;;11.64;45.92
21900;BME280;11114;50.658;12.704;2023-06-04T03:07:43;96372.53;;;11.68;45.79
21900;BME280;11114;50.658;12.704;2023-06-04T03:10:32;96375.81;;;11.70;46.10
21900;BME280;11114;50.658;12.704;2023-06-04T03:13:19;96376.47;;;11.72;45.58
21900;BME280;11114;50.658;12.704;2023-06-04T03:16:07;96373.84;;;11.64;45.76
21900;BME280;11114;50.658;12.704;2023-06-04T03:18:57;96380.84;;;11.63;45.86
21900;BME280;11114;50.658;12.704;2023-06-04T03:21:45;96385.47;;;11.69;45.94
21900;BME280;11114;50.658;12.704;2023-06-04T03:24:40;96376.78;;;11.77;46.08
21900;BME280;11114;50.658;12.704;2023-06-04T03:27:31;96389.09;;;11.84;46.00
21900;BME280;11114;50.658;12.704;2023-06-04T03:30:19;96385.13;;;11.80;45.91
21900;BME280;11114;50.658;12.704;2023-06-04T03:33:20;96388.59;;;11.81;46.02
21900;BME280;11114;50.658;12.704;2023-06-04T03:36:07;96396.13;;;11.84;45.99
21900;BME280;11114;50.658;12.704;2023-06-04T03:38:53;96397.59;;;11.86;46.20
21900;BME280;11114;50.658;12.704;2023-06-04T03:41:41;96394.81;;;11.88;46.19
21900;BME280;11114;50.658;12.704;2023-06-04T03:44:28;96384.66;;;11.85;46.04
21900;BME280;11114;50.658;12.704;2023-06-04T03:47:16;96386.47;;;11.84;46.16
21900;BME280;11114;50.658;12.704;2023-06-04T03:50:05;96402.00;;;11.86;46.29
21900;BME280;11114;50.658;12.704;2023-06-04T03:52:52;96396.94;;;11.84;46.03
21900;BME280;11114;50.658;12.704;2023-06-04T03:55:39;96399.56;;;11.84;46.32
21900;BME280;11114;50.658;12.704;2023-06-04T03:58:27;96399.56;;;11.84;46.48
21900;BME280;11114;50.658;12.704;2023-06-04T04:01:16;96390.22;;;11.82;46.44
21900;BME280;11114;50.658;12.704;2023-06-04T04:04:04;96394.63;;;11.81;46.69
21900;BME280;11114;50.658;12.704;2023-06-04T04:06:51;96395.13;;;11.85;46.95
21900;BME280;11114;50.658;12.704;2023-06-04T04:09:39;96391.88;;;11.83;47.07
21900;BME280;11114;50.658;12.704;2023-06-04T04:12:26;96393.34;;;11.85;47.22
21900;BME280;11114;50.658;12.704;2023-06-04T04:15:13;96396.75;;;11.86;47.38
21900;BME280;11114;50.658;12.704;2023-06-04T04:18:01;96387.94;;;11.87;47.71
21900;BME280;11114;50.658;12.704;2023-06-04T04:20:48;96387.63;;;11.90;47.74
21900;BME280;11114;50.658;12.704;2023-06-04T04:23:35;96389.59;;;11.96;47.95
21900;BME280;11114;50.658;12.704;2023-06-04T04:26:22;96386.66;;;11.99;48.08
21900;BME280;11114;50.658;12.704;2023-06-04T04:29:16;96388.13;;;11.93;48.19
21900;BME280;11114;50.658;12.704;2023-06-04T04:32:03;96389.28;;;11.99;48.39
21900;BME280;11114;50.658;12.704;2023-06-04T04:35:03;96389.78;;;12.02;48.42
21900;BME280;11114;50.658;12.704;2023-06-04T04:37:56;96392.72;;;12.07;48.67
21900;BME280;11114;50.658;12.704;2023-06-04T04:40:44;96396.00;;;12.09;48.82
21900;BME280;11114;50.658;12.704;2023-06-04T04:43:36;96389.78;;;12.10;48.97
21900;BME280;11114;50.658;12.704;2023-06-04T04:46:35;96390.44;;;12.12;49.17
21900;BME280;11114;50.658;12.704;2023-06-04T04:49:21;96388.31;;;12.16;49.12
21900;BME280;11114;50.658;12.704;2023-06-04T04:52:08;96378.03;;;12.22;49.09
21900;BME280;11114;50.658;12.704;2023-06-04T04:55:03;96384.44;;;12.28;48.81
21900;BME280;11114;50.658;12.704;2023-06-04T04:57:53;96381.16;;;12.33;49.00
21900;BME280;11114;50.658;12.704;2023-06-04T05:00:49;96384.06;;;12.38;48.95
21900;BME280;11114;50.658;12.704;2023-06-04T05:03:38;96384.44;;;12.43;49.27
21900;BME280;11114;50.658;12.704;2023-06-04T05:06:27;96395.88;;;12.50;49.26
21900;BME280;11114;50.658;12.704;2023-06-04T05:09:14;96396.19;;;12.55;49.28
21900;BME280;11114;50.658;12.704;2023-06-04T05:12:26;96399.16;;;12.60;49.29
21900;BME280;11114;50.658;12.704;2023-06-04T05:15:13;96397.19;;;12.62;49.92
21900;BME280;11114;50.658;12.704;2023-06-04T05:18:02;96397.00;;;12.64;49.90
21900;BME280;11114;50.658;12.704;2023-06-04T05:20:54;96406.03;;;12.69;49.91
21900;BME280;11114;50.658;12.704;2023-06-04T05:23:41;96410.75;;;12.74;50.00
21900;BME280;11114;50.658;12.704;2023-06-04T05:26:29;96408.31;;;12.80;50.18
21900;BME280;11114;50.658;12.704;2023-06-04T05:29:20;96403.09;;;12.88;49.83
21900;BME280;11114;50.658;12.704;2023-06-04T05:32:08;96411.25;;;12.93;49.26
21900;BME280;11114;50.658;12.704;2023-06-04T05:34:55;96415.03;;;12.99;49.51
21900;BME280;11114;50.658;12.704;2023-06-04T05:37:50;96416.16;;;13.04;49.51
21900;BME280;11114;50.658;12.704;2023-06-04T05:40:46;96419.75;;;13.11;49.72
21900;BME280;11114;50.658;12.704;2023-06-04T05:43:33;96416.44;;;13.17;50.02
21900;BME280;11114;50.658;12.704;2023-06-04T05:46:20;96410.69;;;13.21;50.13
21900;BME280;11114;50.658;12.704;2023-06-04T05:49:08;96426.09;;;13.24;49.92
21900;BME280;11114;50.658;12.704;2023-06-04T05:51:55;96425.59;;;13.29;49.44
21900;BME280;11114;50.658;12.704;2023-06-04T05:54:42;96427.53;;;13.35;49.68
21900;BME280;11114;50.658;12.704;2023-06-04T05:57:29;96422.91;;;13.45;48.74
21900;BME280;11114;50.658;12.704;2023-06-04T06:00:21;96426.00;;;13.56;48.60
21900;BME280;11114;50.658;12.704;2023-06-04T06:03:09;96415.59;;;13.71;48.45
21900;BME280;11114;50.658;12.704;2023-06-04T06:06:02;96421.78;;;13.86;48.02
21900;BME280;11114;50.658;12.704;2023-06-04T06:08:48;96423.97;;;14.12;47.90
21900;BME280;11114;50.658;12.704;2023-06-04T06:11:36;96424.22;;;14.48;47.28
21900;BME280;11114;50.658;12.704;2023-06-04T06:14:22;96425.06;;;14.85;47.03
21900;BME280;11114;50.658;12.704;2023-06-04T06:17:10;96433.94;;;15.21;46.41
21900;BME280;11114;50.658;12.704;2023-06-04T06:19:56;96426.66;;;15.60;45.80
21900;BME280;11114;50.658;12.704;2023-06-04T06:22:43;96436.66;;;15.99;45.30
21900;BME280;11114;50.658;12.704;2023-06-04T06:25:30;96438.03;;;16.45;45.10
21900;BME280;11114;50.658;12.704;2023-06-04T06:28:22;96437.22;;;16.86;44.10
21900;BME280;11114;50.658;12.704;2023-06-04T06:31:10;96430.66;;;17.24;43.77
21900;BME280;11114;50.658;12.704;2023-06-04T06:33:57;96429.25;;;17.55;43.20
21900;BME280;11114;50.658;12.704;2023-06-04T06:36:43;96429.69;;;17.93;42.91
21900;BME280;11114;50.658;12.704;2023-06-04T06:39:31;96437.34;;;18.28;41.97
21900;BME280;11114;50.658;12.704;2023-06-04T06:42:18;96432.13;;;18.41;41.13
21900;BME280;11114;50.658;12.704;2023-06-04T06:45:07;96442.97;;;18.72;40.87
21900;BME280;11114;50.658;12.704;2023-06-04T06:47:53;96440.34;;;18.98;40.61
21900;BME280;11114;50.658;12.704;2023-06-04T06:50:40;96439.59;;;19.29;40.49
21900;BME280;11114;50.658;12.704;2023-06-04T06:53:26;96431.81;;;19.47;39.36
21900;BME280;11114;50.658;12.704;2023-06-04T06:56:14;96435.63;;;19.77;38.90
21900;BME280;11114;50.658;12.704;2023-06-04T06:59:01;96434.56;;;19.97;39.01
21900;BME280;11114;50.658;12.704;2023-06-04T07:01:48;96444.03;;;20.31;38.68
21900;BME280;11114;50.658;12.704;2023-06-04T07:04:34;96438.78;;;20.62;37.98
21900;BME280;11114;50.658;12.704;2023-06-04T07:07:21;96443.78;;;20.76;37.57
21900;BME280;11114;50.658;12.704;2023-06-04T07:10:08;96436.88;;;21.06;37.79
21900;BME280;11114;50.658;12.704;2023-06-04T07:12:55;96436.56;;;21.45;37.42
21900;BME280;11114;50.658;12.704;2023-06-04T07:15:42;96439.41;;;21.92;36.95
21900;BME280;11114;50.658;12.704;2023-06-04T07:18:28;96438.50;;;22.16;36.08
21900;BME280;11114;50.658;12.704;2023-06-04T07:21:15;96444.88;;;22.33;35.54
21900;BME280;11114;50.658;12.704;2023-06-04T07:24:01;96441.78;;;22.36;35.34
21900;BME280;11114;50.658;12.704;2023-06-04T07:26:48;96438.94;;;22.31;36.16
21900;BME280;11114;50.658;12.704;2023-06-04T07:29:34;96442.84;;;22.28;36.03
21900;BME280;11114;50.658;12.704;2023-06-04T07:32:20;96431.41;;;22.45;36.42
21900;BME280;11114;50.658;12.704;2023-06-04T07:35:07;96438.81;;;22.73;36.07
21900;BME280;11114;50.658;12.704;2023-06-04T07:37:57;96444.41;;;23.12;35.39
21900;BME280;11114;50.658;12.704;2023-06-04T07:40:46;96436.22;;;23.48;34.56
21900;BME280;11114;50.658;12.704;2023-06-04T07:43:34;96438.91;;;23.48;33.53
21900;BME280;11114;50.658;12.704;2023-06-04T07:46:24;96431.47;;;23.38;32.48
21900;BME280;11114;50.658;12.704;2023-06-04T07:49:10;96426.72;;;23.29;32.58
21900;BME280;11114;50.658;12.704;2023-06-04T07:51:56;96426.94;;;23.39;32.24
21900;BME280;11114;50.658;12.704;2023-06-04T07:54:43;96437.06;;;23.83;32.60
21900;BME280;11114;50.658;12.704;2023-06-04T07:57:29;96430.50;;;24.24;31.35
21900;BME280;11114;50.658;12.704;2023-06-04T08:00:16;96429.06;;;24.56;30.72
21900;BME280;11114;50.658;12.704;2023-06-04T08:03:04;96424.47;;;24.68;29.94
21900;BME280;11114;50.658;12.704;2023-06-04T08:05:52;96422.09;;;24.55;29.77
21900;BME280;11114;50.658;12.704;2023-06-04T08:08:38;96428.00;;;24.85;30.49
21900;BME280;11114;50.658;12.704;2023-06-04T08:11:31;96426.09;;;24.97;29.93
21900;BME280;11114;50.658;12.704;2023-06-04T08:14:17;96426.53;;;25.22;29.25
21900;BME280;11114;50.658;12.704;2023-06-04T08:17:03;96420.28;;;25.49;29.76
21900;BME280;11114;50.658;12.704;2023-06-04T08:19:49;96420.06;;;25.51;28.67
21900;BME280;11114;50.658;12.704;2023-06-04T08:22:35;96428.09;;;25.51;28.23
21900;BME280;11114;50.658;12.704;2023-06-04T08:25:21;96428.09;;;25.83;28.39
21900;BME280;11114;50.658;12.704;2023-06-04T08:28:08;96412.50;;;25.97;28.01
21900;BME280;11114;50.658;12.704;2023-06-04T08:30:54;96424.88;;;26.24;27.27
21900;BME280;11114;50.658;12.704;2023-06-04T08:33:40;96427.06;;;26.27;27.99
21900;BME280;11114;50.658;12.704;2023-06-04T08:36:27;96418.81;;;26.50;28.39
21900;BME280;11114;50.658;12.704;2023-06-04T08:39:14;96424.81;;;26.57;27.26
21900;BME280;11114;50.658;12.704;2023-06-04T08:42:06;96426.44;;;26.58;27.21
21900;BME280;11114;50.658;12.704;2023-06-04T08:44:53;96432.56;;;26.59;26.47
21900;BME280;11114;50.658;12.704;2023-06-04T08:47:48;96434.59;;;26.94;26.56
21900;BME280;11114;50.658;12.704;2023-06-04T08:50:35;96432.63;;;27.38;27.85
21900;BME280;11114;50.658;12.704;2023-06-04T08:53:22;96427.97;;;27.28;26.19
21900;BME280;11114;50.658;12.704;2023-06-04T08:56:09;96436.78;;;27.24;27.43
21900;BME280;11114;50.658;12.704;2023-06-04T08:59:06;96427.56;;;27.77;26.70
21900;BME280;11114;50.658;12.704;2023-06-04T09:01:54;96433.28;;;27.86;26.53
21900;BME280;11114;50.658;12.704;2023-06-04T09:04:42;96430.94;;;27.99;24.69
21900;BME280;11114;50.658;12.704;2023-06-04T09:07:31;96420.28;;;28.14;25.85
21900;BME280;11114;50.658;12.704;2023-06-04T09:10:22;96422.56;;;28.37;25.98
21900;BME280;11114;50.658;12.704;2023-06-04T09:13:10;96417.84;;;28.08;24.97
21900;BME280;11114;50.658;12.704;2023-06-04T09:16:01;96429.56;;;27.97;25.91
21900;BME280;11114;50.658;12.704;2023-06-04T09:18:47;96435.72;;;27.92;26.89
21900;BME280;11114;50.658;12.704;2023-06-04T09:21:34;96431.53;;;28.06;26.12
21900;BME280;11114;50.658;12.704;2023-06-04T09:24:22;96427.81;;;28.17;26.10
21900;BME280;11114;50.658;12.704;2023-06-04T09:27:10;96432.19;;;28.28;26.10
21900;BME280;11114;50.658;12.704;2023-06-04T09:29:58;96432.38;;;28.17;25.98
21900;BME280;11114;50.658;12.704;2023-06-04T09:32:46;96426.13;;;28.47;26.21
21900;BME280;11114;50.658;12.704;2023-06-04T09:35:33;96425.94;;;28.79;25.90
21900;BME280;11114;50.658;12.704;2023-06-04T09:38:20;96425.38;;;28.72;24.85
21900;BME280;11114;50.658;12.704;2023-06-04T09:41:14;96418.34;;;28.61;25.13
21900;BME280;11114;50.658;12.704;2023-06-04T09:44:03;96426.53;;;28.91;25.52
21900;BME280;11114;50.658;12.704;2023-06-04T09:46:56;96422.81;;;29.02;26.35
21900;BME280;11114;50.658;12.704;2023-06-04T09:49:43;96411.81;;;29.13;25.83
21900;BME280;11114;50.658;12.704;2023-06-04T09:52:33;96428.97;;;28.92;25.14
21900;BME280;11114;50.658;12.704;2023-06-04T09:55:20;96424.81;;;28.60;25.72
21900;BME280;11114;50.658;12.704;2023-06-04T09:58:10;96425.47;;;28.87;25.47
21900;BME280;11114;50.658;12.704;2023-06-04T10:00:59;96423.88;;;29.01;25.26
21900;BME280;11114;50.658;12.704;2023-06-04T10:03:47;96418.06;;;29.38;25.78
21900;BME280;11114;50.658;12.704;2023-06-04T10:06:40;96421.50;;;29.74;25.30
21900;BME280;11114;50.658;12.704;2023-06-04T10:09:27;96423.66;;;29.92;24.28
21900;BME280;11114;50.658;12.704;2023-06-04T10:12:20;96416.41;;;29.97;25.04
21900;BME280;11114;50.658;12.704;2023-06-04T10:15:13;96418.28;;;29.87;24.51
21900;BME280;11114;50.658;12.704;2023-06-04T10:17:59;96410.22;;;29.97;24.60
21900;BME280;11114;50.658;12.704;2023-06-04T10:20:48;96409.41;;;29.96;24.25
21900;BME280;11114;50.658;12.704;2023-06-04T10:23:35;96404.50;;;30.18;24.63
21900;BME280;11114;50.658;12.704;2023-06-04T10:26:22;96404.28;;;30.05;24.42
21900;BME280;11114;50.658;12.704;2023-06-04T10:29:09;96397.44;;;30.32;24.29
21900;BME280;11114;50.658;12.704;2023-06-04T10:31:56;96400.09;;;30.37;24.76
21900;BME280;11114;50.658;12.704;2023-06-04T10:34:42;96398.81;;;30.29;24.26
21900;BME280;11114;50.658;12.704;2023-06-04T10:37:29;96398.47;;;30.41;24.57
21900;BME280;11114;50.658;12.704;2023-06-04T10:40:16;96404.88;;;30.65;24.69
21900;BME280;11114;50.658;12.704;2023-06-04T10:43:07;96403.00;;;30.65;23.37
21900;BME280;11114;50.658;12.704;2023-06-04T10:45:54;96406.47;;;30.71;23.36
21900;BME280;11114;50.658;12.704;2023-06-04T10:48:48;96394.03;;;30.75;24.64
21900;BME280;11114;50.658;12.704;2023-06-04T10:51:41;96398.47;;;30.99;23.59
21900;BME280;11114;50.658;12.704;2023-06-04T10:54:30;96397.22;;;30.87;23.51
21900;BME280;11114;50.658;12.704;2023-06-04T10:57:18;96407.31;;;30.61;23.82
21900;BME280;11114;50.658;12.704;2023-06-04T11:00:05;96405.97;;;30.59;23.61
21900;BME280;11114;50.658;12.704;2023-06-04T11:02:56;96405.88;;;30.79;23.80
21900;BME280;11114;50.658;12.704;2023-06-04T11:05:44;96397.81;;;30.79;23.10
21900;BME280;11114;50.658;12.704;2023-06-04T11:08:30;96402.78;;;31.00;23.40
21900;BME280;11114;50.658;12.704;2023-06-04T11:11:16;96401.00;;;30.86;24.33
21900;BME280;11114;50.658;12.704;2023-06-04T11:14:11;96396.19;;;30.73;23.40
21900;BME280;11114;50.658;12.704;2023-06-04T11:17:09;96400.06;;;30.57;23.02
21900;BME280;11114;50.658;12.704;2023-06-04T11:19:56;96399.91;;;30.82;23.86
21900;BME280;11114;50.658;12.704;2023-06-04T11:22:50;96403.13;;;30.89;21.70
21900;BME280;11114;50.658;12.704;2023-06-04T11:25:38;96399.84;;;30.38;23.83
21900;BME280;11114;50.658;12.704;2023-06-04T11:28:25;96410.25;;;30.70;23.00
21900;BME280;11114;50.658;12.704;2023-06-04T11:31:14;96398.41;;;30.66;23.74
21900;BME280;11114;50.658;12.704;2023-06-04T11:34:01;96392.47;;;30.64;24.03
21900;BME280;11114;50.658;12.704;2023-06-04T11:36:47;96384.91;;;30.66;23.18
21900;BME280;11114;50.658;12.704;2023-06-04T11:39:36;96383.97;;;30.32;23.58
21900;BME280;11114;50.658;12.704;2023-06-04T11:42:28;96392.69;;;30.04;23.27
21900;BME280;11114;50.658;12.704;2023-06-04T11:45:17;96379.25;;;29.99;23.77
21900;BME280;11114;50.658;12.704;2023-06-04T11:48:05;96386.19;;;30.15;24.14
21900;BME280;11114;50.658;12.704;2023-06-04T11:50:51;96382.06;;;30.37;24.19
21900;BME280;11114;50.658;12.704;2023-06-04T11:53:39;96390.00;;;29.99;23.76
21900;BME280;11114;50.658;12.704;2023-06-04T11:56:25;96396.75;;;29.77;23.31
21900;BME280;11114;50.658;12.704;2023-06-04T11:59:16;96379.28;;;29.64;23.49
21900;BME280;11114;50.658;12.704;2023-06-04T12:02:07;96391.13;;;29.63;23.81
21900;BME280;11114;50.658;12.704;2023-06-04T12:04:53;96390.03;;;29.59;23.78
21900;BME280;11114;50.658;12.704;2023-06-04T12:07:40;96397.03;;;29.70;24.03
21900;BME280;11114;50.658;12.704;2023-06-04T12:10:27;96394.03;;;29.82;24.02
21900;BME280;11114;50.658;12.704;2023-06-04T12:13:14;96395.41;;;29.69;24.15
21900;BME280;11114;50.658;12.704;2023-06-04T12:16:01;96399.22;;;29.48;22.81
21900;BME280;11114;50.658;12.704;2023-06-04T12:18:47;96397.59;;;29.37;23.73
21900;BME280;11114;50.658;12.704;2023-06-04T12:21:37;96402.38;;;29.16;23.61
21900;BME280;11114;50.658;12.704;2023-06-04T12:24:24;96394.31;;;29.11;23.99
21900;BME280;11114;50.658;12.704;2023-06-04T12:27:10;96403.97;;;28.97;24.23
21900;BME280;11114;50.658;12.704;2023-06-04T12:29:59;96394.28;;;28.91;24.91
21900;BME280;11114;50.658;12.704;2023-06-04T12:32:47;96400.09;;;28.58;24.76
21900;BME280;11114;50.658;12.704;2023-06-04T12:35:34;96400.25;;;28.27;25.39
21900;BME280;11114;50.658;12.704;2023-06-04T12:38:20;96402.50;;;27.98;24.94
21900;BME280;11114;50.658;12.704;2023-06-04T12:41:06;96403.41;;;27.72;25.59
21900;BME280;11114;50.658;12.704;2023-06-04T12:43:52;96402.16;;;27.53;25.73
21900;BME280;11114;50.658;12.704;2023-06-04T12:46:41;96404.66;;;27.29;25.32
21900;BME280;11114;50.658;12.704;2023-06-04T12:49:37;96395.59;;;27.08;26.13
21900;BME280;11114;50.658;12.704;2023-06-04T12:52:26;96393.06;;;26.97;26.06
21900;BME280;11114;50.658;12.704;2023-06-04T12:55:15;96403.69;;;26.87;26.06
21900;BME280;11114;50.658;12.704;2023-06-04T12:58:08;96398.75;;;26.74;26.59
21900;BME280;11114;50.658;12.704;2023-06-04T13:00:55;96392.25;;;26.70;26.26
21900;BME280;11114;50.658;12.704;2023-06-04T13:03:41;96388.75;;;26.43;26.23
21900;BME280;11114;50.658;12.704;2023-06-04T13:06:27;96390.22;;;26.34;26.61
21900;BME280;11114;50.658;12.704;2023-06-04T13:09:13;96389.41;;;26.34;26.83
21900;BME280;11114;50.658;12.704;2023-06-04T13:11:59;96395.13;;;26.21;26.62
21900;BME280;11114;50.658;12.704;2023-06-04T13:14:46;96385.75;;;25.80;27.00
21900;BME280;11114;50.658;12.704;2023-06-04T13:17:32;96385.88;;;25.53;27.34
21900;BME280;11114;50.658;12.704;2023-06-04T13:20:19;96390.41;;;25.52;27.84
21900;BME280;11114;50.658;12.704;2023-06-04T13:23:07;96389.19;;;25.60;28.58
21900;BME280;11114;50.658;12.704;2023-06-04T13:25:54;96384.31;;;25.57;27.82
21900;BME280;11114;50.658;12.704;2023-06-04T13:28:40;96375.50;;;25.40;27.77
21900;BME280;11114;50.658;12.704;2023-06-04T13:31:27;96371.88;;;25.29;27.71
21900;BME280;11114;50.658;12.704;2023-06-04T13:34:13;96380.25;;;25.05;27.86
21900;BME280;11114;50.658;12.704;2023-06-04T13:37:10;96378.00;;;24.97;28.33
21900;BME280;11114;50.658;12.704;2023-06-04T13:39:58;96377.84;;;25.03;28.45
21900;BME280;11114;50.658;12.704;2023-06-04T13:42:45;96378.06;;;25.02;28.66
21900;BME280;11114;50.658;12.704;2023-06-04T13:45:34;96369.22;;;24.85;28.14
21900;BME280;11114;50.658;12.704;2023-06-04T13:48:20;96371.78;;;24.64;28.60
21900;BME280;11114;50.658;12.704;2023-06-04T13:51:08;96365.88;;;24.62;28.70
21900;BME280;11114;50.658;12.704;2023-06-04T13:53:54;96365.16;;;24.66;28.33
21900;BME280;11114;50.658;12.704;2023-06-04T13:56:40;96371.78;;;24.64;28.40
21900;BME280;11114;50.658;12.704;2023-06-04T13:59:30;96370.09;;;24.58;28.81
21900;BME280;11114;50.658;12.704;2023-06-04T14:02:17;96365.94;;;24.50;29.78
21900;BME280;11114;50.658;12.704;2023-06-04T14:05:04;96363.19;;;24.45;29.58
21900;BME280;11114;50.658;12.704;2023-06-04T14:07:51;96358.41;;;24.47;28.95
21900;BME280;11114;50.658;12.704;2023-06-04T14:10:38;96361.31;;;24.34;29.28
21900;BME280;11114;50.658;12.704;2023-06-04T14:13:26;96362.88;;;24.30;29.64
21900;BME280;11114;50.658;12.704;2023-06-04T14:16:14;96363.41;;;24.32;29.65
21900;BME280;11114;50.658;12.704;2023-06-04T14:19:01;96362.28;;;24.28;28.87
21900;BME280;11114;50.658;12.704;2023-06-04T14:21:46;96356.63;;;24.25;28.74
21900;BME280;11114;50.658;12.704;2023-06-04T14:24:33;96353.63;;;24.21;29.14
21900;BME280;11114;50.658;12.704;2023-06-04T14:27:23;96350.13;;;24.21;29.46
21900;BME280;11114;50.658;12.704;2023-06-04T14:30:21;96350.03;;;24.16;29.06
21900;BME280;11114;50.658;12.704;2023-06-04T14:33:10;96358.44;;;23.97;28.84
21900;BME280;11114;50.658;12.704;2023-06-04T14:36:03;96354.41;;;23.83;29.49
21900;BME280;11114;50.658;12.704;2023-06-04T14:38:50;96362.41;;;23.83;29.12
21900;BME280;11114;50.658;12.704;2023-06-04T14:41:37;96359.50;;;23.84;28.50